»·PEaware :: N246AB KSBP-KPSP

N246AB :: KSBP-KPSP

FLIGHT INFORMATION

Flight Status: Arrived
Operator: Privately registered:
United States
More flights under this callsign
Pilot: Tommaso M. (17204)
Aircraft: Unknown
(SF50)
More flights by this aircraft type
Origin: KSBP San Luis Co Regl
United States
Destination: KPSP Palm Springs Intl
United States
More flights between these airports :: More routes between these airports
Route:
File this flight plan on PilotEdge
Remarks:
Altitude:
(Current/Filed)
14,500ft
Speed:
(Current/Filed)
160kts
Departed: 11-May-18 02:57 PM
Arrived: 11-May-18 04:14 PM
Distance/Time
Traveled:
222nm/1:17
Distance/Time
To Go:
Arrived

Flight Plot

Page will automatically refresh every two minutes.


Map Options




Map Legend


Flown Route
Filed Route
Departure Airport
Arrival Airport
Navaid (VOR, NDB)
Fix

Horizontal Profiles

Position Reports

Time Latitude Longitude Heading Altitude Ground
Speed
11-May-18 14:12 35.234344 -120.632952 126 214ft 0kts
11-May-18 14:13 35.234344 -120.632952 126 214ft 0kts
11-May-18 14:14 35.234344 -120.632952 126 214ft 0kts
11-May-18 14:15 35.234344 -120.632952 126 214ft 0kts
11-May-18 14:16 35.234344 -120.632952 126 214ft 0kts
11-May-18 14:17 35.234344 -120.632952 126 214ft 0kts
11-May-18 14:18 35.234344 -120.632952 126 214ft 0kts
11-May-18 14:19 35.234344 -120.632952 126 214ft 0kts
11-May-18 14:20 35.234344 -120.632952 126 214ft 0kts
11-May-18 14:21 35.234344 -120.632952 126 214ft 0kts
11-May-18 14:22 35.234344 -120.632952 126 214ft 0kts
11-May-18 14:23 35.234344 -120.632952 126 214ft 0kts
11-May-18 14:24 35.234344 -120.632952 126 214ft 0kts
11-May-18 14:25 35.234344 -120.632952 126 214ft 0kts
11-May-18 14:26 35.234344 -120.632952 126 214ft 0kts
11-May-18 14:27 35.234344 -120.632952 126 214ft 0kts
11-May-18 14:28 35.234344 -120.632952 126 214ft 0kts
11-May-18 14:29 35.234344 -120.632952 126 214ft 0kts
11-May-18 14:30 35.234344 -120.632952 126 214ft 0kts
11-May-18 14:31 35.234344 -120.632952 126 214ft 0kts
11-May-18 14:32 35.234344 -120.632952 126 214ft 0kts
11-May-18 14:33 35.234344 -120.632952 126 214ft 0kts
11-May-18 14:34 35.234344 -120.632952 126 214ft 0kts
11-May-18 14:35 35.234344 -120.632952 126 214ft 0kts
11-May-18 14:36 35.234344 -120.632952 126 214ft 0kts
11-May-18 14:37 35.234344 -120.632952 126 214ft 0kts
11-May-18 14:38 35.234344 -120.632952 126 214ft 0kts
11-May-18 14:39 35.234344 -120.632952 126 214ft 0kts
11-May-18 14:40 35.234344 -120.632952 126 214ft 0kts
11-May-18 14:41 35.234344 -120.632952 126 214ft 0kts
11-May-18 14:42 35.234344 -120.632952 126 214ft 0kts
11-May-18 14:43 35.234344 -120.632952 126 214ft 0kts
11-May-18 14:44 35.234344 -120.632952 126 214ft 0kts
11-May-18 14:45 35.234344 -120.632952 126 214ft 0kts
11-May-18 14:46 35.234344 -120.632952 126 214ft 0kts
11-May-18 14:47 35.234344 -120.632952 126 214ft 0kts
11-May-18 14:48 35.234344 -120.632952 126 214ft 0kts
11-May-18 14:49 35.234344 -120.632952 126 214ft 0kts
11-May-18 14:50 35.234344 -120.632952 126 214ft 0kts
11-May-18 14:51 35.234333 -120.632934 127 214ft 0kts
11-May-18 14:52 35.234463 -120.633636 262 213ft 3kts
11-May-18 14:53 35.233873 -120.633008 124 213ft 5kts
11-May-18 14:54 35.233196 -120.632421 213 213ft 0kts
11-May-18 14:55 35.233196 -120.632421 213 213ft 0kts
11-May-18 14:56 35.233074 -120.633487 305 210ft 19kts
11-May-18 14:57 35.249992 -120.659375 312 689ft 157kts
11-May-18 14:58 35.277781 -120.711513 302 2091ft 203kts
11-May-18 14:59 35.310810 -120.772621 314 3406ft 228kts
11-May-18 15:00 35.284997 -120.817802 153 4619ft 215kts
11-May-18 15:01 35.259068 -120.763157 115 5851ft 173kts
11-May-18 15:02 35.239877 -120.714014 115 7089ft 147kts
11-May-18 15:03 35.224115 -120.673640 115 8285ft 114kts
11-May-18 15:04 35.211476 -120.641260 115 9366ft 105kts
11-May-18 15:05 35.198633 -120.608354 115 10573ft 123kts
11-May-18 15:06 35.183046 -120.568411 115 11875ft 171kts
11-May-18 15:07 35.161926 -120.514275 115 13164ft 217kts
11-May-18 15:08 35.141987 -120.444017 108 14446ft 239kts
11-May-18 15:09 35.119959 -120.363446 108 14653ft 258kts
11-May-18 15:10 35.098008 -120.283111 108 14649ft 254kts
11-May-18 15:11 35.076144 -120.203041 108 14650ft 244kts
11-May-18 15:12 35.054939 -120.125338 108 14651ft 240kts
11-May-18 15:13 35.033905 -120.048208 108 14652ft 238kts
11-May-18 15:14 35.013030 -119.971626 108 14652ft 238kts
11-May-18 15:15 34.986194 -119.898114 114 14651ft 237kts
11-May-18 15:16 34.959036 -119.824936 114 14652ft 237kts
11-May-18 15:17 34.931922 -119.751824 114 14652ft 237kts
11-May-18 15:18 34.904694 -119.678354 114 14652ft 237kts
11-May-18 15:19 34.877836 -119.605834 114 14652ft 237kts
11-May-18 15:20 34.853159 -119.531379 109 14652ft 237kts
11-May-18 15:21 34.831444 -119.455650 108 14653ft 237kts
11-May-18 15:22 34.809739 -119.379875 108 14652ft 237kts
11-May-18 15:23 34.788809 -119.306740 109 14652ft 237kts
11-May-18 15:24 34.767131 -119.230927 109 14652ft 237kts
11-May-18 15:25 34.744499 -119.155420 113 14654ft 237kts
11-May-18 15:26 34.717497 -119.081972 114 14653ft 237kts
11-May-18 15:27 34.690606 -119.008947 114 14652ft 237kts
11-May-18 15:28 34.663659 -118.935719 114 14652ft 237kts
11-May-18 15:29 34.636815 -118.862721 114 14652ft 237kts
11-May-18 15:30 34.609772 -118.789131 113 14671ft 237kts
11-May-18 15:31 34.583101 -118.716506 113 14671ft 237kts
11-May-18 15:32 34.556288 -118.643442 113 14671ft 237kts
11-May-18 15:33 34.530855 -118.569762 109 14678ft 237kts
11-May-18 15:34 34.509413 -118.494062 108 14670ft 237kts
11-May-18 15:35 34.487979 -118.418349 108 14671ft 237kts
11-May-18 15:36 34.467567 -118.346178 109 14670ft 238kts
11-May-18 15:37 34.446274 -118.270821 109 14670ft 238kts
11-May-18 15:38 34.422407 -118.196295 115 14665ft 238kts
11-May-18 15:39 34.394792 -118.124062 114 14670ft 235kts
11-May-18 15:40 34.367552 -118.052803 114 14670ft 234kts
11-May-18 15:41 34.340362 -117.981630 114 14670ft 233kts
11-May-18 15:42 34.312858 -117.909587 114 14280ft 237kts
11-May-18 15:43 34.285546 -117.838004 114 13687ft 236kts
11-May-18 15:44 34.258065 -117.765931 114 13090ft 236kts
11-May-18 15:45 34.230699 -117.694111 114 12402ft 234kts
11-May-18 15:46 34.203425 -117.624488 116 11711ft 231kts
11-May-18 15:47 34.176488 -117.559774 116 11665ft 208kts
11-May-18 15:48 34.151971 -117.501192 119 11666ft 198kts
11-May-18 15:49 34.124789 -117.445537 121 10972ft 220kts
11-May-18 15:50 34.095657 -117.388463 121 10664ft 212kts
11-May-18 15:51 34.068202 -117.334654 121 10667ft 200kts
11-May-18 15:52 34.039843 -117.279053 121 10678ft 194kts
11-May-18 15:53 34.011956 -117.224363 121 10688ft 191kts
11-May-18 15:54 33.978674 -117.175033 131 10689ft 190kts
11-May-18 15:55 33.943640 -117.127404 131 10689ft 189kts
11-May-18 15:56 33.908831 -117.080070 131 10689ft 189kts
11-May-18 15:57 33.874817 -117.033811 131 10689ft 189kts
11-May-18 15:58 33.840054 -116.986523 131 10689ft 189kts
11-May-18 15:59 33.805094 -116.938960 131 10689ft 189kts
11-May-18 16:00 33.770407 -116.891757 131 10689ft 189kts
11-May-18 16:01 33.739559 -116.849774 131 10754ft 185kts
11-May-18 16:02 33.708735 -116.808809 132 10873ft 183kts
11-May-18 16:03 33.676233 -116.766086 132 10819ft 189kts
11-May-18 16:04 33.639343 -116.717589 132 10058ft 206kts
11-May-18 16:05 33.603038 -116.663775 95 9196ft 214kts
11-May-18 16:06 33.598219 -116.594842 94 8463ft 205kts
11-May-18 16:07 33.593446 -116.527183 94 7663ft 203kts
11-May-18 16:08 33.609605 -116.469315 34 6859ft 201kts
11-May-18 16:09 33.658648 -116.437259 18 6037ft 201kts
11-May-18 16:10 33.709401 -116.435652 349 5913ft 173kts
11-May-18 16:11 33.756084 -116.435095 344 4285ft 203kts
11-May-18 16:12 33.793671 -116.474073 313 1948ft 151kts
11-May-18 16:13 33.820676 -116.499565 323 439ft 89kts
11-May-18 16:14 33.831135 -116.508920 324 431ft 0kts
11-May-18 16:15 33.832458 -116.510183 322 435ft 11kts
11-May-18 16:16 33.834338 -116.510806 42 439ft 0kts
11-May-18 16:17 33.834346 -116.510797 42 439ft 1kts
11-May-18 16:18 33.835336 -116.509034 98 436ft 7kts
11-May-18 16:19 33.834042 -116.507661 144 433ft 7kts
11-May-18 16:20 33.831795 -116.505694 143 426ft 11kts
11-May-18 16:21 33.829502 -116.503645 142 418ft 9kts
11-May-18 16:22 33.827277 -116.501684 142 411ft 10kts
11-May-18 16:23 33.827139 -116.500703 97 407ft 2kts
11-May-18 16:24 33.826917 -116.499968 56 405ft 2kts
11-May-18 16:25 33.826831 -116.499571 21 404ft 0kts
11-May-18 16:26 33.826888 -116.499598 321 405ft 0kts
11-May-18 16:27 33.826888 -116.499598 321 405ft 0kts
11-May-18 16:28 33.826888 -116.499598 321 405ft 0kts

Navigation Log

Ident Type
1. KSBP Airport
2. KPSP Airport